Time;durP1;ratioP1;P1;durP2;ratioP2;P2;SDS_P1;SDS_P2;PMS_P1;PMS_P2;Temp;Humidity;BMP_temperature;BMP_pressure;BME280_temperature;BME280_humidity;BME280_pressure;Samples;Min_cycle;Max_cycle;Signal;HPM_P1;HPM_P2
2023/05/12 00:01:41;;;;;;;2.78;1.23;;;14.70;99.90;;;;;;5051098;28;20021;-49
2023/05/12 00:04:07;;;;;;;4.40;1.30;;;14.70;99.90;;;;;;5051074;28;20021;-50
2023/05/12 00:06:32;;;;;;;3.15;1.27;;;14.80;99.90;;;;;;5051088;28;20025;-52
2023/05/12 00:08:58;;;;;;;1.83;1.20;;;14.80;99.90;;;;;;5050017;28;20082;-52
2023/05/12 00:11:24;;;;;;;1.33;1.20;;;14.80;99.90;;;;;;5048239;28;20021;-49
2023/05/12 00:13:50;;;;;;;1.30;1.20;;;14.80;99.90;;;;;;5050434;28;20021;-50
2023/05/12 00:16:17;;;;;;;1.92;1.00;;;14.80;99.90;;;;;;5049865;28;20013;-49
2023/05/12 00:18:44;;;;;;;1.38;1.17;;;14.80;99.90;;;;;;5047794;28;20028;-53
2023/05/12 00:21:11;;;;;;;3.45;1.60;;;14.80;99.90;;;;;;5031691;28;20483;-49
2023/05/12 00:23:37;;;;;;;4.18;1.40;;;14.70;99.90;;;;;;5050886;28;20119;-51
2023/05/12 00:26:03;;;;;;;2.88;1.27;;;14.80;99.90;;;;;;5049792;28;20159;-53
2023/05/12 00:28:29;;;;;;;3.13;1.40;;;14.70;99.90;;;;;;5032409;28;20120;-50
2023/05/12 00:30:55;;;;;;;1.45;1.35;;;14.70;99.90;;;;;;5050486;28;20070;-52
2023/05/12 00:33:21;;;;;;;1.03;0.97;;;14.70;99.90;;;;;;5044400;28;20498;-52
2023/05/12 00:35:46;;;;;;;1.40;1.30;;;14.70;99.90;;;;;;5051768;28;20024;-50
2023/05/12 00:38:12;;;;;;;1.65;1.27;;;14.60;99.90;;;;;;5031786;28;20048;-50
2023/05/12 00:40:39;;;;;;;1.77;1.67;;;14.60;99.90;;;;;;5046970;28;20029;-50
2023/05/12 00:43:05;;;;;;;3.25;1.50;;;14.60;99.90;;;;;;5050191;28;20029;-51
2023/05/12 00:45:30;;;;;;;2.38;1.58;;;14.60;99.90;;;;;;5032659;28;20127;-52
2023/05/12 00:47:57;;;;;;;7.80;1.48;;;14.60;99.90;;;;;;5033012;28;20021;-49
2023/05/12 00:50:23;;;;;;;3.72;1.77;;;14.60;99.90;;;;;;5050434;28;20259;-54
2023/05/12 00:52:49;;;;;;;3.83;1.90;;;14.60;99.90;;;;;;5034321;28;20449;-49
2023/05/12 00:55:15;;;;;;;1.90;1.50;;;14.50;99.90;;;;;;5035088;28;20484;-50
2023/05/12 00:57:42;;;;;;;2.28;1.40;;;14.50;99.90;;;;;;5051307;28;20056;-50
2023/05/12 01:00:09;;;;;;;2.13;1.38;;;14.50;99.90;;;;;;5051338;28;20095;-52
2023/05/12 01:02:35;;;;;;;;;;;14.40;99.90;;;;;;5052051;28;20064;-50
2023/05/12 01:05:02;;;;;;;1.50;1.40;;;14.40;99.90;;;;;;5051194;28;19908;-49
2023/05/12 01:07:31;;;;;;;2.10;1.63;;;14.40;99.90;;;;;;5050926;28;20043;-49
2023/05/12 01:09:57;;;;;;;1.45;1.35;;;14.40;99.90;;;;;;5051427;28;20452;-49
2023/05/12 01:12:24;;;;;;;2.00;1.80;;;14.40;99.90;;;;;;5051207;28;20074;-50
2023/05/12 01:14:52;;;;;;;4.75;1.58;;;14.40;99.90;;;;;;5051173;28;20100;-50
2023/05/12 01:17:27;;;;;;;3.17;1.52;;;14.50;99.90;;;;;;5051004;28;20029;-49
2023/05/12 01:20:05;;;;;;;1.42;1.33;;;14.50;99.90;;;;;;5051270;28;20033;-49
2023/05/12 01:22:32;;;;;;;2.78;1.75;;;14.50;99.90;;;;;;5032060;28;20037;-49
2023/05/12 01:25:04;;;;;;;6.97;2.50;;;14.50;99.90;;;;;;5051159;28;20100;-51
2023/05/12 01:27:31;;;;;;;3.03;2.15;;;14.50;99.90;;;;;;5021775;28;20079;-50
2023/05/12 01:29:59;;;;;;;2.05;1.45;;;14.50;99.90;;;;;;5038573;28;20058;-49
2023/05/12 01:32:25;;;;;;;5.38;2.25;;;14.60;99.90;;;;;;5049140;28;20022;-49
2023/05/12 01:34:51;;;;;;;2.20;1.40;;;14.50;99.90;;;;;;5050158;28;20029;-49
2023/05/12 01:37:18;;;;;;;3.30;1.48;;;14.60;99.90;;;;;;5048974;28;20029;-48
2023/05/12 01:39:44;;;;;;;2.67;1.60;;;14.60;99.90;;;;;;5049887;28;20025;-50
2023/05/12 01:42:10;;;;;;;3.75;1.90;;;14.50;99.90;;;;;;5049793;28;20033;-49
2023/05/12 01:44:35;;;;;;;4.80;2.22;;;14.40;99.90;;;;;;5049246;28;20380;-49
2023/05/12 01:47:01;;;;;;;4.50;2.40;;;14.30;99.90;;;;;;5048047;28;20117;-50
2023/05/12 01:49:27;;;;;;;2.72;2.05;;;14.20;99.90;;;;;;5050186;28;20036;-49
2023/05/12 01:51:53;;;;;;;3.10;1.67;;;14.20;99.90;;;;;;5031238;28;20031;-49
2023/05/12 01:54:18;;;;;;;3.47;1.83;;;14.30;99.90;;;;;;5049432;28;20028;-51
2023/05/12 01:56:44;;;;;;;6.40;2.22;;;14.30;99.90;;;;;;5035608;28;20052;-52
2023/05/12 01:59:10;;;;;;;2.70;2.15;;;14.30;99.90;;;;;;5053459;28;20009;-49
2023/05/12 02:01:36;;;;;;;5.43;2.22;;;14.40;99.90;;;;;;5050243;28;20060;-49
2023/05/12 02:04:03;;;;;;;3.67;2.20;;;14.40;99.90;;;;;;5052107;28;20127;-50
2023/05/12 02:06:29;;;;;;;;;;;14.40;99.90;;;;;;5052618;28;20430;-49
2023/05/12 02:08:54;;;;;;;5.47;1.92;;;14.40;99.90;;;;;;5033913;28;19916;-52
2023/05/12 02:11:20;;;;;;;2.08;1.83;;;14.40;99.90;;;;;;5052265;28;20025;-50
2023/05/12 02:13:46;;;;;;;3.55;2.05;;;14.40;99.90;;;;;;5053084;28;20013;-49
2023/05/12 02:16:13;;;;;;;5.35;1.98;;;14.40;99.90;;;;;;5052495;28;20055;-49
2023/05/12 02:18:38;;;;;;;3.67;2.00;;;14.50;99.90;;;;;;5052449;28;20029;-52
2023/05/12 02:21:05;;;;;;;3.35;2.20;;;14.50;99.90;;;;;;5051580;28;20025;-50
2023/05/12 02:23:30;;;;;;;2.90;2.47;;;14.50;99.90;;;;;;5051878;28;20033;-49
2023/05/12 02:25:56;;;;;;;3.08;2.63;;;14.50;99.90;;;;;;5053083;28;20637;-48
2023/05/12 02:28:22;;;;;;;2.75;2.47;;;14.50;99.90;;;;;;5052794;28;20029;-48
2023/05/12 02:30:49;;;;;;;3.92;2.67;;;14.40;99.90;;;;;;5051511;28;20434;-49
2023/05/12 02:33:15;;;;;;;;;;;14.40;99.90;;;;;;5051807;28;20036;-53
2023/05/12 02:35:41;;;;;;;4.38;3.28;;;14.40;99.90;;;;;;5052995;28;20294;-51
2023/05/12 02:38:07;;;;;;;4.90;3.60;;;14.40;99.90;;;;;;5052781;28;20125;-49
2023/05/12 02:40:32;;;;;;;4.68;3.47;;;14.40;99.90;;;;;;5052060;28;20055;-49
2023/05/12 02:42:58;;;;;;;3.95;3.65;;;14.40;99.90;;;;;;5052940;28;20036;-51
2023/05/12 02:45:24;;;;;;;4.47;4.03;;;14.40;99.90;;;;;;5051944;28;20124;-50
2023/05/12 02:47:49;;;;;;;4.93;3.80;;;14.40;99.90;;;;;;5051992;28;20480;-50
2023/05/12 02:50:15;;;;;;;5.70;3.50;;;14.40;99.90;;;;;;5048719;28;20025;-49
2023/05/12 02:52:41;;;;;;;4.57;4.18;;;14.40;99.90;;;;;;5047232;28;20025;-48
2023/05/12 02:55:07;;;;;;;4.57;4.18;;;14.30;99.90;;;;;;5049767;28;20630;-49
2023/05/12 02:57:33;;;;;;;4.43;4.00;;;14.30;99.90;;;;;;5051494;28;20031;-52
2023/05/12 03:00:05;;;;;;;4.97;4.45;;;14.40;99.90;;;;;;5050832;28;20423;-49
2023/05/12 03:02:31;;;;;;;5.43;4.57;;;14.40;99.90;;;;;;5050031;28;20025;-49
2023/05/12 03:04:57;;;;;;;11.32;5.13;;;14.40;99.90;;;;;;5051035;28;20128;-50
2023/05/12 03:07:23;;;;;;;4.85;4.35;;;14.40;99.90;;;;;;5051994;28;20100;-52
2023/05/12 03:09:48;;;;;;;5.65;4.40;;;14.40;99.90;;;;;;5052061;28;20025;-49
2023/05/12 03:12:14;;;;;;;5.07;4.10;;;14.30;99.90;;;;;;5035135;28;20028;-49
2023/05/12 03:14:40;;;;;;;4.10;3.50;;;14.30;99.90;;;;;;5052547;28;20051;-50
2023/05/12 03:17:06;;;;;;;4.93;4.35;;;14.30;99.90;;;;;;5051478;28;20479;-50
2023/05/12 03:19:31;;;;;;;4.00;3.67;;;14.20;99.90;;;;;;5050149;28;20029;-49
2023/05/12 03:21:57;;;;;;;6.75;4.07;;;14.20;99.90;;;;;;5048547;28;20541;-53
2023/05/12 03:24:23;;;;;;;4.80;4.32;;;14.30;99.90;;;;;;5050969;28;20036;-50
2023/05/12 03:26:48;;;;;;;6.85;4.13;;;14.30;99.90;;;;;;5051640;28;20028;-51
2023/05/12 03:29:14;;;;;;;5.95;4.50;;;14.30;99.90;;;;;;5052477;28;20029;-50
2023/05/12 03:31:40;;;;;;;6.93;4.80;;;14.20;99.90;;;;;;5049950;28;20033;-50
2023/05/12 03:34:05;;;;;;;5.85;5.22;;;14.20;99.90;;;;;;5050829;28;20507;-50
2023/05/12 03:36:31;;;;;;;5.20;4.70;;;14.10;99.90;;;;;;5051578;28;20035;-50
2023/05/12 03:38:57;;;;;;;4.88;4.30;;;14.10;99.90;;;;;;5051537;28;20029;-49
2023/05/12 03:41:22;;;;;;;5.70;5.10;;;14.00;99.90;;;;;;5051296;28;20127;-49
2023/05/12 03:43:48;;;;;;;7.30;4.93;;;14.00;99.90;;;;;;5050518;28;20470;-50
2023/05/12 03:46:14;;;;;;;5.22;4.55;;;14.00;99.90;;;;;;5051539;28;20029;-51
2023/05/12 03:48:40;;;;;;;5.68;5.07;;;14.00;99.90;;;;;;5051221;28;20025;-49
2023/05/12 03:51:05;;;;;;;5.57;5.07;;;14.00;99.90;;;;;;5051440;28;20021;-49
2023/05/12 03:53:31;;;;;;;10.10;5.65;;;13.90;99.90;;;;;;5033226;28;20032;-52
2023/05/12 03:55:57;;;;;;;8.60;5.13;;;13.90;99.90;;;;;;5050015;28;20422;-51
2023/05/12 03:58:23;;;;;;;7.93;4.88;;;13.90;99.90;;;;;;5049607;28;20060;-53
2023/05/12 04:00:49;;;;;;;6.63;5.63;;;13.90;99.90;;;;;;5051888;28;20082;-50
2023/05/12 04:03:15;;;;;;;14.52;5.88;;;13.80;99.90;;;;;;5052020;28;20082;-49
2023/05/12 04:05:41;;;;;;;6.77;5.27;;;13.80;99.90;;;;;;5052040;28;20025;-49
2023/05/12 04:08:10;;;;;;;7.88;5.63;;;13.80;99.90;;;;;;5033783;28;20287;-49
2023/05/12 04:10:39;;;;;;;6.10;5.50;;;13.80;99.90;;;;;;5052001;28;20429;-49
2023/05/12 04:13:06;;;;;;;6.55;5.40;;;13.80;99.90;;;;;;5051932;28;20029;-49
2023/05/12 04:15:33;;;;;;;13.05;4.90;;;13.80;99.90;;;;;;5051884;28;20024;-49
2023/05/12 04:17:59;;;;;;;13.43;6.15;;;13.80;99.90;;;;;;5051277;28;20021;-50
2023/05/12 04:20:25;;;;;;;6.93;5.40;;;13.80;99.90;;;;;;5051772;28;20105;-49
2023/05/12 04:22:50;;;;;;;7.35;5.82;;;13.70;99.90;;;;;;5051620;28;20052;-49
2023/05/12 04:25:16;;;;;;;8.85;5.20;;;13.70;99.90;;;;;;5051816;28;20087;-49
2023/05/12 04:27:42;;;;;;;5.93;5.32;;;13.80;99.90;;;;;;5051629;28;20059;-48
2023/05/12 04:30:08;;;;;;;8.88;5.30;;;13.70;99.90;;;;;;5051670;28;20074;-49
2023/05/12 04:32:33;;;;;;;10.05;6.25;;;13.70;99.90;;;;;;5051625;28;20025;-49
2023/05/12 04:34:59;;;;;;;13.13;6.38;;;13.70;99.90;;;;;;5051547;28;20035;-51
2023/05/12 04:37:26;;;;;;;8.75;6.13;;;13.70;99.90;;;;;;5051410;28;20025;-48
2023/05/12 04:39:52;;;;;;;7.53;5.95;;;13.80;99.90;;;;;;5051641;28;20057;-49
2023/05/12 04:42:18;;;;;;;5.63;5.03;;;13.80;99.90;;;;;;5051672;28;20032;-49
2023/05/12 04:44:45;;;;;;;7.45;5.57;;;13.80;99.90;;;;;;5051528;28;20025;-49
2023/05/12 04:47:11;;;;;;;8.15;5.13;;;13.90;99.90;;;;;;5051181;28;20032;-49
2023/05/12 04:49:37;;;;;;;9.75;6.20;;;13.90;99.90;;;;;;5051543;28;20029;-51
2023/05/12 04:52:04;;;;;;;6.97;5.82;;;14.00;99.90;;;;;;5051354;28;20032;-50
2023/05/12 04:54:31;;;;;;;7.60;5.68;;;14.00;99.90;;;;;;5051384;28;20028;-49
2023/05/12 04:56:57;;;;;;;8.43;5.57;;;14.10;99.90;;;;;;5051453;28;20070;-49
2023/05/12 04:59:23;;;;;;;5.78;5.28;;;14.10;99.90;;;;;;5051235;28;20025;-49
2023/05/12 05:01:48;;;;;;;7.53;5.68;;;14.00;99.90;;;;;;5051157;28;20036;-49
2023/05/12 05:04:14;;;;;;;6.43;5.82;;;14.10;99.90;;;;;;5051358;28;20017;-49
2023/05/12 05:06:40;;;;;;;7.05;6.30;;;14.00;99.90;;;;;;5051451;28;20098;-49
2023/05/12 05:09:06;;;;;;;6.75;5.50;;;14.10;99.90;;;;;;5032995;28;20021;-49
2023/05/12 05:11:31;;;;;;;8.15;5.68;;;14.10;99.90;;;;;;5051241;28;20048;-49
2023/05/12 05:13:57;;;;;;;6.95;5.55;;;14.20;99.90;;;;;;5051295;28;20057;-49
2023/05/12 05:16:23;;;;;;;6.18;4.85;;;14.20;99.90;;;;;;5051178;28;20024;-49
2023/05/12 05:18:49;;;;;;;7.57;5.50;;;14.30;99.90;;;;;;5050975;28;20049;-49
2023/05/12 05:21:14;;;;;;;6.57;5.10;;;14.30;99.90;;;;;;5051246;28;20048;-49
2023/05/12 05:23:41;;;;;;;8.18;5.57;;;14.40;99.90;;;;;;5051128;28;20029;-49
2023/05/12 05:26:07;;;;;;;6.38;5.53;;;14.40;99.90;;;;;;5051049;28;20120;-49
2023/05/12 05:28:34;;;;;;;5.75;5.20;;;14.40;99.90;;;;;;5050974;28;20100;-50
2023/05/12 05:31:00;;;;;;;7.47;5.03;;;14.40;99.90;;;;;;5054291;28;20025;-49
2023/05/12 05:33:25;;;;;;;5.93;5.32;;;14.50;99.90;;;;;;5054957;28;20289;-49
2023/05/12 05:35:51;;;;;;;7.65;4.68;;;14.50;99.90;;;;;;5054975;28;20551;-55
2023/05/12 05:38:17;;;;;;;6.93;5.20;;;14.60;99.90;;;;;;5055034;28;20057;-51
2023/05/12 05:40:43;;;;;;;7.13;4.95;;;14.70;99.90;;;;;;5036985;28;20075;-50
2023/05/12 05:43:08;;;;;;;11.32;5.13;;;14.80;99.90;;;;;;5054874;28;20021;-53
2023/05/12 05:45:34;;;;;;;5.78;4.47;;;14.80;99.90;;;;;;5054920;28;20100;-50
2023/05/12 05:48:00;;;;;;;6.15;5.00;;;14.80;99.90;;;;;;5054100;28;20025;-50
2023/05/12 05:50:26;;;;;;;8.05;4.75;;;14.90;99.90;;;;;;5059238;28;20021;-52
2023/05/12 05:52:53;;;;;;;4.90;4.38;;;14.80;99.90;;;;;;5068864;28;20025;-46
2023/05/12 05:55:20;;;;;;;6.65;5.18;;;14.90;99.90;;;;;;5066996;28;20427;-46
2023/05/12 05:57:46;;;;;;;5.27;4.60;;;15.00;99.90;;;;;;5054503;28;20036;-48
2023/05/12 06:00:13;;;;;;;5.78;4.75;;;15.00;99.90;;;;;;5059764;28;20407;-47
2023/05/12 06:02:39;;;;;;;;;;;15.10;99.90;;;;;;5074570;28;20028;-46
2023/05/12 06:05:05;;;;;;;5.57;4.47;;;15.20;99.90;;;;;;5068072;28;19905;-49
2023/05/12 06:07:31;;;;;;;5.75;4.78;;;15.20;99.90;;;;;;5054956;28;20037;-46
2023/05/12 06:09:57;;;;;;;7.30;5.22;;;15.30;99.90;;;;;;5041945;28;20086;-46
2023/05/12 06:12:23;;;;;;;8.63;4.68;;;15.40;99.90;;;;;;5072539;28;20483;-50
2023/05/12 06:14:48;;;;;;;5.38;4.88;;;15.40;99.90;;;;;;5067930;28;20387;-46
2023/05/12 06:17:14;;;;;;;5.32;4.47;;;15.50;99.90;;;;;;5056857;28;20029;-47
2023/05/12 06:19:40;;;;;;;5.18;4.35;;;15.50;99.90;;;;;;5062323;28;20027;-46
2023/05/12 06:22:08;;;;;;;5.78;4.15;;;15.60;99.90;;;;;;5058186;28;20051;-49
2023/05/12 06:24:34;;;;;;;4.97;4.45;;;15.60;99.90;;;;;;5059459;28;20067;-47
2023/05/12 06:27:00;;;;;;;5.57;4.60;;;15.70;99.90;;;;;;5068770;28;20032;-47
2023/05/12 06:29:26;;;;;;;12.45;5.05;;;15.80;99.90;;;;;;5067415;28;20025;-48
2023/05/12 06:31:51;;;;;;;4.80;4.25;;;15.90;99.90;;;;;;5059983;28;20380;-55
2023/05/12 06:34:17;;;;;;;5.28;4.22;;;16.00;99.90;;;;;;5059046;28;20019;-53
2023/05/12 06:36:43;;;;;;;6.97;4.90;;;16.00;99.90;;;;;;5066518;28;20028;-53
2023/05/12 06:39:08;;;;;;;5.03;4.53;;;16.10;99.90;;;;;;5067255;28;20049;-55
2023/05/12 06:41:34;;;;;;;5.85;5.35;;;16.10;99.90;;;;;;5061796;28;20040;-51
2023/05/12 06:44:01;;;;;;;5.05;4.55;;;16.30;99.90;;;;;;5058042;28;20052;-50
2023/05/12 06:46:27;;;;;;;8.68;4.93;;;16.40;99.90;;;;;;5046851;28;20032;-49
2023/05/12 06:48:54;;;;;;;6.85;4.47;;;16.50;99.90;;;;;;5068752;28;20115;-50
2023/05/12 06:51:20;;;;;;;;;;;16.60;99.90;;;;;;5061209;28;20499;-52
2023/05/12 06:53:45;;;;;;;5.10;4.50;;;16.60;99.90;;;;;;5055996;28;19911;-54
2023/05/12 06:56:15;;;;;;;5.05;4.55;;;16.60;99.90;;;;;;5064729;28;20021;-51
2023/05/12 06:58:41;;;;;;;5.18;4.53;;;16.60;99.90;;;;;;5070373;28;20032;-51
2023/05/12 07:01:07;;;;;;;5.97;4.28;;;16.60;99.90;;;;;;5061872;28;20021;-50
2023/05/12 07:03:33;;;;;;;3.63;3.22;;;16.60;99.90;;;;;;5056078;28;20040;-53
2023/05/12 07:05:59;;;;;;;3.30;2.58;;;16.60;99.90;;;;;;5061974;28;20029;-56
2023/05/12 07:08:25;;;;;;;5.78;3.10;;;16.60;99.90;;;;;;5053923;28;20059;-50
2023/05/12 07:10:51;;;;;;;7.78;3.28;;;16.60;99.90;;;;;;5062991;28;20060;-50
2023/05/12 07:13:17;;;;;;;3.15;2.85;;;16.60;99.90;;;;;;5072901;28;20028;-54
2023/05/12 07:15:43;;;;;;;3.92;3.15;;;16.60;99.90;;;;;;5073068;28;20479;-55
2023/05/12 07:18:09;;;;;;;4.05;3.00;;;16.70;99.90;;;;;;5073024;28;20111;-56
2023/05/12 07:20:35;;;;;;;4.53;3.08;;;16.80;99.90;;;;;;5072983;28;20032;-50
2023/05/12 07:23:00;;;;;;;5.18;3.47;;;16.80;99.90;;;;;;5072896;28;20111;-56
2023/05/12 07:25:27;;;;;;;4.45;3.42;;;17.00;99.90;;;;;;5056942;28;20076;-54
2023/05/12 07:27:52;;;;;;;3.40;3.10;;;17.10;99.80;;;;;;5035155;28;20029;-53
2023/05/12 07:30:19;;;;;;;3.63;2.80;;;17.20;99.10;;;;;;5032882;28;20384;-54
2023/05/12 07:32:45;;;;;;;6.20;3.00;;;17.30;97.60;;;;;;5032860;28;20052;-52
2023/05/12 07:35:11;;;;;;;4.55;3.20;;;17.40;96.90;;;;;;5032967;28;20097;-53
2023/05/12 07:37:37;;;;;;;4.18;3.75;;;17.30;96.30;;;;;;5032562;28;20026;-53
2023/05/12 07:40:03;;;;;;;4.75;3.90;;;17.30;96.60;;;;;;5032865;28;20028;-56
2023/05/12 07:42:29;;;;;;;3.40;3.10;;;17.40;97.10;;;;;;5032621;28;20022;-57
2023/05/12 07:44:55;;;;;;;5.72;3.90;;;17.40;96.60;;;;;;5032644;28;20559;-53
2023/05/12 07:47:20;;;;;;;6.10;3.47;;;17.50;96.20;;;;;;5032417;28;20025;-53
2023/05/12 07:49:46;;;;;;;3.95;3.40;;;17.60;95.70;;;;;;5032646;28;20021;-51
2023/05/12 07:52:12;;;;;;;4.80;3.03;;;17.60;95.90;;;;;;5031902;28;20028;-55
2023/05/12 07:54:38;;;;;;;3.50;3.20;;;17.70;96.50;;;;;;5014846;28;20025;-56
2023/05/12 07:57:03;;;;;;;3.75;3.03;;;17.70;96.60;;;;;;5032200;28;20441;-57
2023/05/12 07:59:29;;;;;;;2.67;2.47;;;17.80;96.10;;;;;;5032425;28;20100;-55
2023/05/12 08:01:55;;;;;;;4.40;2.97;;;17.90;95.30;;;;;;5032295;28;20056;-58
2023/05/12 08:04:21;;;;;;;3.83;3.42;;;17.90;94.50;;;;;;5032550;28;20482;-51
2023/05/12 08:06:46;;;;;;;4.03;3.13;;;18.00;94.60;;;;;;5032256;28;20033;-53
2023/05/12 08:09:12;;;;;;;3.30;2.50;;;18.00;94.90;;;;;;5031954;28;20037;-52
2023/05/12 08:11:38;;;;;;;4.68;2.63;;;18.00;94.60;;;;;;5031311;28;20022;-55
2023/05/12 08:14:04;;;;;;;5.15;3.15;;;18.00;94.00;;;;;;5031964;28;20409;-54
2023/05/12 08:16:30;;;;;;;10.80;4.45;;;18.00;94.00;;;;;;5031635;28;20502;-53
2023/05/12 08:18:56;;;;;;;4.80;3.33;;;18.10;94.70;;;;;;5031998;28;20030;-55
2023/05/12 08:21:21;;;;;;;3.38;3.00;;;18.30;93.80;;;;;;5031844;28;20101;-50
2023/05/12 08:23:47;;;;;;;5.00;3.40;;;18.30;93.10;;;;;;5014222;28;20502;-55
2023/05/12 08:26:13;;;;;;;3.92;3.58;;;18.30;91.90;;;;;;5031784;28;20025;-50
2023/05/12 08:28:38;;;;;;;3.35;3.05;;;18.40;92.70;;;;;;5031532;28;20033;-50
2023/05/12 08:31:04;;;;;;;3.45;3.15;;;18.50;91.20;;;;;;5031852;28;20018;-50
2023/05/12 08:33:30;;;;;;;5.00;3.78;;;18.50;91.70;;;;;;5013981;28;20402;-50
2023/05/12 08:35:56;;;;;;;4.00;2.40;;;18.70;92.10;;;;;;5031691;28;20022;-52
2023/05/12 08:38:22;;;;;;;3.33;2.97;;;18.90;92.00;;;;;;5031594;28;20021;-51
2023/05/12 08:41:21;;;;;;;3.17;2.88;;;18.90;91.50;;;;;;5031507;28;20746;-52
2023/05/12 08:43:51;;;;;;;4.63;2.67;;;19.10;89.40;;;;;;5031781;28;20048;-51
2023/05/12 08:46:17;;;;;;;2.10;1.90;;;19.30;86.20;;;;;;5031635;28;20508;-54
2023/05/12 08:48:48;;;;;;;5.13;2.38;;;19.40;86.40;;;;;;5031410;28;20095;-51
2023/05/12 08:51:14;;;;;;;4.18;2.10;;;19.50;85.50;;;;;;5031391;28;20025;-53
2023/05/12 08:53:41;;;;;;;3.67;2.40;;;19.60;86.40;;;;;;5031526;28;20100;-53
2023/05/12 08:56:09;;;;;;;4.60;2.63;;;19.60;85.70;;;;;;5031569;28;20032;-53
2023/05/12 08:58:35;;;;;;;3.47;2.90;;;19.70;85.50;;;;;;5031358;28;20388;-50
2023/05/12 09:01:06;;;;;;;6.50;2.53;;;19.70;83.30;;;;;;5031580;28;20087;-54
2023/05/12 09:03:33;;;;;;;2.58;2.38;;;19.60;83.40;;;;;;5031898;28;20048;-57
2023/05/12 09:05:59;;;;;;;2.67;2.45;;;19.70;86.00;;;;;;5035564;28;20488;-54
2023/05/12 09:08:27;;;;;;;2.50;2.03;;;19.80;86.40;;;;;;5035422;28;20506;-53
2023/05/12 09:10:56;;;;;;;2.28;2.00;;;19.90;83.50;;;;;;5035596;28;20032;-50
2023/05/12 09:13:48;;;;;;;2.42;2.05;;;20.00;82.80;;;;;;5017705;28;20048;-55
2023/05/12 09:16:17;;;;;;;1.88;1.67;;;20.00;83.30;;;;;;5035351;28;20024;-50
2023/05/12 09:18:52;;;;;;;1.50;1.13;;;20.00;82.40;;;;;;5017452;28;20112;-55
2023/05/12 09:21:18;;;;;;;0.98;0.90;;;20.10;81.20;;;;;;5035351;28;20079;-57
2023/05/12 09:23:58;;;;;;;1.27;0.80;;;20.10;82.20;;;;;;5035365;28;20026;-50
2023/05/12 09:26:28;;;;;;;2.53;0.88;;;20.20;80.70;;;;;;5035230;28;20025;-54
2023/05/12 09:29:02;;;;;;;4.03;1.27;;;20.20;80.40;;;;;;5034888;28;20041;-53
2023/05/12 09:31:28;;;;;;;2.10;1.00;;;20.20;79.40;;;;;;5035168;28;20396;-50
2023/05/12 09:33:54;;;;;;;1.23;0.93;;;20.30;79.60;;;;;;5035186;28;20092;-50
2023/05/12 09:36:21;;;;;;;1.25;0.85;;;20.40;78.80;;;;;;5035231;28;20028;-50
2023/05/12 09:38:59;;;;;;;1.02;0.80;;;20.50;79.20;;;;;;5034982;28;20080;-50
2023/05/12 09:41:25;;;;;;;;;;;20.60;77.30;;;;;;5035311;28;20507;-52
2023/05/12 09:43:53;;;;;;;3.92;1.38;;;20.60;77.40;;;;;;5035129;28;19905;-54
2023/05/12 09:46:19;;;;;;;1.52;0.98;;;20.60;77.80;;;;;;5017124;28;20032;-51
2023/05/12 09:48:48;;;;;;;2.40;1.20;;;20.70;78.50;;;;;;5034611;28;20029;-55
2023/05/12 09:51:19;;;;;;;3.05;1.00;;;20.80;77.60;;;;;;5034823;28;20029;-53
2023/05/12 09:53:45;;;;;;;2.88;0.75;;;20.70;77.60;;;;;;5034675;28;20025;-55
2023/05/12 09:56:15;;;;;;;0.70;0.50;;;20.70;76.80;;;;;;5034755;28;20025;-54
2023/05/12 09:58:46;;;;;;;1.95;0.60;;;20.60;76.20;;;;;;5034531;28;20438;-52
2023/05/12 10:01:17;;;;;;;0.55;0.30;;;20.40;77.30;;;;;;5034617;28;20034;-53
2023/05/12 10:03:46;;;;;;;3.05;0.50;;;20.20;77.50;;;;;;5034595;28;20034;-51
2023/05/12 10:06:19;;;;;;;2.67;1.25;;;20.00;77.20;;;;;;5034363;28;20029;-52
2023/05/12 10:09:13;;;;;;;2.72;0.52;;;20.10;79.70;;;;;;5034532;28;20400;-57
2023/05/12 10:11:40;;;;;;;2.00;0.60;;;20.20;76.60;;;;;;5034433;28;20075;-52
2023/05/12 10:14:08;;;;;;;;;;;20.40;79.50;;;;;;5042926;28;20021;-55
2023/05/12 10:16:34;;;;;;;;;;;20.70;77.10;;;;;;5051238;28;19954;-57
2023/05/12 10:19:02;;;;;;;1.15;0.65;;;21.00;76.50;;;;;;5051010;28;19916;-56
2023/05/12 10:57:49;;;;;;;1.27;0.40;;;21.50;72.80;;;;;;5832838;23;20048;-49
2023/05/12 11:00:20;;;;;;;0.70;0.60;;;21.50;71.80;;;;;;5070959;28;20147;-46
2023/05/12 11:02:50;;;;;;;0.50;0.50;;;21.50;72.40;;;;;;5071533;28;20036;-57
2023/05/12 11:05:16;;;;;;;0.73;0.40;;;21.90;73.20;;;;;;5070119;28;20035;-59
2023/05/12 11:07:47;;;;;;;0.75;0.70;;;22.10;72.90;;;;;;5046159;28;20029;-60
2023/05/12 11:10:13;;;;;;;0.90;0.60;;;22.40;72.00;;;;;;5040085;28;20024;-60
2023/05/12 11:12:43;;;;;;;1.20;1.00;;;22.50;71.50;;;;;;5061887;28;20028;-59
2023/05/12 11:15:11;;;;;;;1.25;1.02;;;22.30;69.40;;;;;;5050342;28;20112;-60
2023/05/12 11:17:37;;;;;;;;;;;22.10;70.30;;;;;;5056021;28;20027;-59
2023/05/12 11:20:03;;;;;;;0.60;0.60;;;21.90;70.20;;;;;;5051482;28;19916;-60
2023/05/12 11:22:29;;;;;;;1.85;0.90;;;21.50;70.30;;;;;;5058341;28;20117;-60
2023/05/12 11:24:55;;;;;;;0.77;0.63;;;21.20;71.10;;;;;;5061597;28;20052;-59
2023/05/12 11:27:22;;;;;;;0.68;0.68;;;21.20;71.00;;;;;;5067609;28;20033;-57
2023/05/12 11:29:59;;;;;;;4.50;1.17;;;21.00;70.50;;;;;;5062313;28;20134;-59
2023/05/12 11:32:26;;;;;;;1.67;0.82;;;21.00;70.90;;;;;;5052356;28;20402;-59
2023/05/12 11:34:51;;;;;;;1.80;1.38;;;21.00;71.90;;;;;;5052539;28;20036;-60
2023/05/12 11:37:19;;;;;;;1.83;1.60;;;20.80;71.80;;;;;;5052113;28;20025;-60
2023/05/12 11:39:45;;;;;;;3.40;1.65;;;20.70;73.20;;;;;;5052285;28;20550;-59
2023/05/12 11:42:11;;;;;;;1.98;1.10;;;20.60;74.10;;;;;;5055687;28;20092;-59
2023/05/12 11:44:48;;;;;;;2.00;1.20;;;20.50;75.60;;;;;;5052266;28;20021;-60
2023/05/12 11:47:15;;;;;;;1.30;1.20;;;20.20;76.10;;;;;;5051298;28;20506;-60
2023/05/12 11:49:52;;;;;;;0.50;0.40;;;20.00;76.10;;;;;;5052607;28;20021;-59
2023/05/12 11:52:19;;;;;;;0.30;0.30;;;19.80;69.70;;;;;;5052550;28;20410;-59
2023/05/12 11:54:49;;;;;;;;;;;19.30;69.00;;;;;;5052087;28;20120;-56
2023/05/12 11:57:25;;;;;;;2.60;0.50;;;19.10;69.90;;;;;;5051385;28;19955;-59
2023/05/12 11:59:59;;;;;;;2.65;0.40;;;18.80;70.90;;;;;;5052356;28;20044;-58
2023/05/12 12:02:25;;;;;;;1.63;0.30;;;18.60;72.60;;;;;;5051991;28;20029;-59
2023/05/12 12:04:51;;;;;;;2.67;0.50;;;18.30;70.90;;;;;;5051888;28;20471;-58
2023/05/12 12:07:33;;;;;;;4.30;0.60;;;18.10;71.80;;;;;;5051258;28;20021;-59
2023/05/12 12:10:14;;;;;;;0.77;0.40;;;17.80;76.30;;;;;;5052259;28;20032;-59
2023/05/12 12:12:41;;;;;;;0.88;0.40;;;17.70;78.30;;;;;;5058983;28;20032;-58
2023/05/12 12:15:08;;;;;;;1.98;0.55;;;17.50;79.90;;;;;;5055811;28;20108;-58
2023/05/12 12:17:34;;;;;;;15.70;2.70;;;17.50;79.50;;;;;;5051703;28;20036;-58
2023/05/12 12:20:00;;;;;;;3.92;1.17;;;17.40;82.00;;;;;;5051242;28;20029;-51
2023/05/12 12:22:32;;;;;;;5.45;0.80;;;17.20;86.10;;;;;;5051901;28;20078;-60
2023/05/12 12:24:59;;;;;;;4.47;1.08;;;17.10;89.60;;;;;;5050096;28;20398;-59
2023/05/12 12:27:24;;;;;;;4.97;0.77;;;17.00;90.20;;;;;;5050823;28;20099;-60
2023/05/12 12:29:51;;;;;;;3.45;0.60;;;16.90;91.10;;;;;;5051743;28;20475;-60
2023/05/12 12:32:17;;;;;;;;;;;16.80;91.80;;;;;;5051891;28;20025;-60
2023/05/12 12:34:45;;;;;;;5.68;0.90;;;16.70;92.90;;;;;;5051344;28;19932;-59
2023/05/12 12:37:11;;;;;;;0.90;0.57;;;16.70;93.50;;;;;;5051520;28;20063;-58
2023/05/12 12:39:36;;;;;;;5.72;1.15;;;16.60;94.40;;;;;;5051099;28;20021;-60
2023/05/12 12:42:04;;;;;;;8.35;1.98;;;16.60;95.50;;;;;;5051317;28;20159;-60
2023/05/12 12:44:29;;;;;;;1.65;0.77;;;16.60;95.80;;;;;;5051184;28;20033;-60
2023/05/12 12:46:55;;;;;;;2.65;0.75;;;16.60;96.60;;;;;;5054826;28;20534;-60
2023/05/12 12:49:21;;;;;;;2.50;0.90;;;16.40;97.20;;;;;;5071410;28;20028;-59
2023/05/12 12:51:47;;;;;;;3.97;0.73;;;16.20;98.30;;;;;;5061985;28;20027;-60
2023/05/12 12:54:13;;;;;;;5.90;1.13;;;16.40;98.30;;;;;;5051521;28;20017;-60
2023/05/12 12:56:41;;;;;;;1.30;0.80;;;16.50;97.70;;;;;;5050822;28;20084;-61
2023/05/12 12:59:08;;;;;;;2.92;0.82;;;16.70;98.10;;;;;;5050535;28;20052;-60
2023/05/12 13:01:34;;;;;;;1.40;1.02;;;17.00;98.40;;;;;;5053833;28;20029;-59
2023/05/12 13:04:00;;;;;;;2.45;1.10;;;17.30;97.30;;;;;;5059563;28;20051;-59
2023/05/12 13:06:26;;;;;;;0.75;0.75;;;17.50;96.50;;;;;;5052373;28;20444;-57
2023/05/12 13:08:52;;;;;;;1.33;0.65;;;17.60;95.90;;;;;;5051548;28;20041;-59
2023/05/12 13:11:17;;;;;;;1.08;0.60;;;17.60;94.70;;;;;;5061351;28;20099;-60
2023/05/12 13:13:43;;;;;;;0.90;0.68;;;17.70;95.20;;;;;;5057347;28;20032;-59
2023/05/12 13:16:09;;;;;;;2.03;1.40;;;18.10;94.80;;;;;;5057224;28;20033;-59
2023/05/12 13:18:36;;;;;;;1.10;1.00;;;18.30;93.50;;;;;;5063065;28;20028;-60
2023/05/12 13:21:03;;;;;;;1.30;1.20;;;18.50;93.50;;;;;;5055024;28;20040;-60
2023/05/12 13:23:28;;;;;;;;;;;18.50;93.80;;;;;;5057024;28;20040;-59
2023/05/12 13:25:54;;;;;;;1.45;1.13;;;18.50;92.80;;;;;;5061894;28;19908;-59